Time;durP1;ratioP1;P1;durP2;ratioP2;P2;SDS_P1;SDS_P2;PMS_P1;PMS_P2;Temp;Humidity;BMP_temperature;BMP_pressure;BME280_temperature;BME280_humidity;BME280_pressure;Samples;Min_cycle;Max_cycle;Signal;HPM_P1;HPM_P2
2021/09/02 00:02:13;;;;;;;16.02;14.35;;;17.70;65.10;;;;;;5064558;28;20416;-88
2021/09/02 00:04:39;;;;;;;16.58;14.75;;;17.70;65.10;;;;;;5065461;28;20039;-85
2021/09/02 00:07:05;;;;;;;16.23;14.65;;;17.70;65.20;;;;;;5064455;28;20132;-83
2021/09/02 00:09:31;;;;;;;17.00;15.20;;;17.70;65.20;;;;;;5063952;28;20029;-82
2021/09/02 00:11:57;;;;;;;16.75;14.63;;;17.60;65.10;;;;;;5048213;28;20040;-83
2021/09/02 00:14:24;;;;;;;16.73;15.13;;;17.60;65.10;;;;;;5080466;28;20495;-85
2021/09/02 00:16:50;;;;;;;16.52;14.88;;;17.60;65.10;;;;;;5085091;28;20044;-85
2021/09/02 00:19:16;;;;;;;16.08;14.50;;;17.60;65.20;;;;;;5073928;28;20036;-82
2021/09/02 00:21:42;;;;;;;19.05;15.38;;;17.60;65.20;;;;;;5085778;28;20031;-83
2021/09/02 00:24:09;;;;;;;19.92;14.68;;;17.60;65.20;;;;;;5072846;28;20032;-85
2021/09/02 00:26:35;;;;;;;17.17;15.23;;;17.50;65.00;;;;;;5064149;28;20089;-83
2021/09/02 00:29:01;;;;;;;16.45;14.75;;;17.50;65.00;;;;;;5072252;28;20028;-84
2021/09/02 00:31:27;;;;;;;15.65;14.15;;;17.50;65.10;;;;;;5075524;28;20043;-82
2021/09/02 00:33:52;;;;;;;16.77;13.40;;;17.50;65.10;;;;;;5074778;28;20037;-84
2021/09/02 00:36:18;;;;;;;16.33;13.85;;;17.50;65.20;;;;;;5047708;28;20032;-83
2021/09/02 00:38:44;;;;;;;16.48;14.77;;;17.50;65.20;;;;;;5072919;28;20062;-85
2021/09/02 00:41:10;;;;;;;13.68;12.30;;;17.50;65.20;;;;;;5071002;28;20387;-82
2021/09/02 00:43:41;;;;;;;16.20;14.50;;;17.50;65.20;;;;;;5080121;28;20032;-82
2021/09/02 00:46:15;;;;;;;15.10;13.52;;;17.40;65.20;;;;;;5068416;28;20033;-80
2021/09/02 00:48:42;;;;;;;;;;;17.40;65.10;;;;;;5077937;28;20406;-83
2021/09/02 00:51:09;;;;;;;15.18;13.40;;;17.40;65.00;;;;;;5067173;28;19915;-81
2021/09/02 00:53:35;;;;;;;17.73;13.88;;;17.40;65.00;;;;;;5068422;28;20115;-81
2021/09/02 00:56:01;;;;;;;15.60;14.00;;;17.40;65.10;;;;;;5068288;28;20036;-83
2021/09/02 00:58:27;;;;;;;15.90;13.95;;;17.40;65.10;;;;;;5068370;28;20051;-81
2021/09/02 01:00:53;;;;;;;14.95;13.15;;;17.30;65.00;;;;;;5058039;28;20068;-83
2021/09/02 01:03:20;;;;;;;15.30;13.55;;;17.40;65.20;;;;;;5068098;28;20111;-88
2021/09/02 01:05:53;;;;;;;17.40;12.85;;;17.30;65.10;;;;;;5066938;28;20058;-81
2021/09/02 01:08:20;;;;;;;15.63;13.70;;;17.40;65.30;;;;;;5067603;28;20035;-84
2021/09/02 01:10:49;;;;;;;14.88;13.20;;;17.30;65.10;;;;;;5068330;28;20036;-82
2021/09/02 01:13:15;;;;;;;14.52;12.98;;;17.30;65.10;;;;;;5050324;28;20031;-86
2021/09/02 01:15:42;;;;;;;15.57;13.98;;;17.30;65.10;;;;;;5050320;28;20051;-85
2021/09/02 01:18:08;;;;;;;15.23;13.65;;;17.30;65.20;;;;;;5079170;28;20044;-82
2021/09/02 01:20:34;;;;;;;15.20;12.98;;;17.30;65.20;;;;;;5066909;28;20437;-83
2021/09/02 01:23:03;;;;;;;16.50;14.20;;;17.30;65.30;;;;;;5067949;28;20456;-87
2021/09/02 01:25:32;;;;;;;15.90;14.02;;;17.30;65.30;;;;;;5066887;28;20092;-83
2021/09/02 01:28:01;;;;;;;16.55;13.93;;;17.20;65.10;;;;;;5068106;28;20496;-81
2021/09/02 01:30:27;;;;;;;18.00;13.57;;;17.20;65.20;;;;;;5067486;28;20070;-80
2021/09/02 01:32:54;;;;;;;15.43;13.68;;;17.20;65.20;;;;;;5048229;28;20479;-81
2021/09/02 01:35:21;;;;;;;17.05;13.90;;;17.20;65.30;;;;;;5067140;28;20060;-81
2021/09/02 01:37:49;;;;;;;16.35;14.55;;;17.20;65.30;;;;;;5053819;28;20132;-81
2021/09/02 01:40:16;;;;;;;16.98;14.88;;;17.10;65.10;;;;;;5084908;28;20123;-83
2021/09/02 01:42:43;;;;;;;17.60;13.73;;;17.20;65.40;;;;;;5087182;28;20475;-82
2021/09/02 01:45:10;;;;;;;15.88;14.27;;;17.10;65.20;;;;;;5052141;28;20094;-84
2021/09/02 01:47:36;;;;;;;13.55;12.00;;;17.10;65.30;;;;;;5065938;28;20033;-82
2021/09/02 01:50:21;;;;;;;14.88;13.38;;;17.10;65.30;;;;;;5040842;28;20491;-83
2021/09/02 01:52:49;;;;;;;15.00;13.48;;;17.10;65.40;;;;;;5050902;28;20037;-80
2021/09/02 01:55:16;;;;;;;14.27;12.77;;;17.10;65.30;;;;;;5053228;28;20038;-83
2021/09/02 01:57:42;;;;;;;15.18;13.63;;;17.10;65.40;;;;;;5069529;28;20089;-81
2021/09/02 02:00:12;;;;;;;14.85;13.35;;;17.10;65.40;;;;;;5053069;28;20054;-82
2021/09/02 02:02:39;;;;;;;15.52;13.93;;;17.10;65.50;;;;;;5060310;28;20090;-81
2021/09/02 02:05:07;;;;;;;13.73;12.13;;;17.00;65.30;;;;;;5053002;28;20119;-86
2021/09/02 02:07:34;;;;;;;15.95;14.23;;;17.10;65.50;;;;;;5052394;28;20032;-82
2021/09/02 02:10:00;;;;;;;21.40;13.75;;;17.00;65.30;;;;;;5069400;28;20431;-83
2021/09/02 02:12:26;;;;;;;14.10;12.43;;;17.10;65.50;;;;;;5053190;28;20027;-83
2021/09/02 02:14:52;;;;;;;20.13;13.63;;;17.10;65.60;;;;;;5069678;28;20210;-83
2021/09/02 02:17:18;;;;;;;14.98;13.50;;;17.00;65.40;;;;;;5057251;28;20078;-83
2021/09/02 02:19:44;;;;;;;14.80;13.23;;;17.00;65.40;;;;;;5089516;28;20400;-82
2021/09/02 02:22:10;;;;;;;15.10;13.50;;;17.00;65.50;;;;;;5089423;28;20174;-82
2021/09/02 02:24:36;;;;;;;14.90;12.70;;;17.00;65.50;;;;;;5089795;28;20123;-83
2021/09/02 02:27:02;;;;;;;17.42;13.63;;;17.00;65.50;;;;;;5089396;28;20031;-83
2021/09/02 02:29:28;;;;;;;14.95;13.45;;;17.00;65.60;;;;;;5089709;28;20089;-81
2021/09/02 02:31:55;;;;;;;15.85;14.25;;;17.00;65.60;;;;;;5090882;28;20360;-84
2021/09/02 02:34:21;;;;;;;15.80;14.00;;;17.00;65.70;;;;;;5083592;28;20467;-81
2021/09/02 02:36:47;;;;;;;15.07;13.07;;;17.00;65.70;;;;;;5090277;28;20078;-83
2021/09/02 02:39:13;;;;;;;14.30;12.80;;;17.00;65.70;;;;;;5090418;28;20040;-82
2021/09/02 02:41:39;;;;;;;16.08;13.73;;;16.90;65.60;;;;;;5089768;28;20020;-83
2021/09/02 02:44:05;;;;;;;15.93;13.77;;;16.90;65.60;;;;;;5089373;28;20477;-83
2021/09/02 02:46:32;;;;;;;15.13;13.48;;;16.90;65.60;;;;;;5072910;28;20051;-85
2021/09/02 02:48:58;;;;;;;15.18;13.45;;;16.90;65.60;;;;;;5090806;28;20468;-81
2021/09/02 02:51:24;;;;;;;14.35;12.90;;;16.90;65.70;;;;;;5089205;28;20445;-82
2021/09/02 02:53:50;;;;;;;14.73;13.18;;;16.80;65.50;;;;;;5088975;28;20137;-83
2021/09/02 02:56:16;;;;;;;16.70;14.05;;;16.90;65.70;;;;;;5090646;28;20040;-82
2021/09/02 02:58:42;;;;;;;16.00;13.73;;;16.90;65.70;;;;;;5090080;28;20048;-84
2021/09/02 03:01:08;;;;;;;14.35;11.57;;;16.80;65.60;;;;;;5089018;28;20044;-81
2021/09/02 03:03:34;;;;;;;18.48;13.25;;;16.80;65.60;;;;;;5079749;28;20062;-85
2021/09/02 03:06:00;;;;;;;15.55;13.95;;;16.90;65.80;;;;;;5072357;28;20024;-83
2021/09/02 03:08:26;;;;;;;18.00;13.38;;;16.80;65.70;;;;;;5088705;28;20028;-82
2021/09/02 03:10:52;;;;;;;15.13;12.68;;;16.80;65.70;;;;;;5072765;28;20093;-83
2021/09/02 03:13:18;;;;;;;14.50;13.00;;;16.80;65.70;;;;;;5071990;28;20059;-83
2021/09/02 03:15:44;;;;;;;16.23;12.90;;;16.80;65.80;;;;;;5071876;28;20077;-82
2021/09/02 03:18:11;;;;;;;15.65;12.93;;;16.80;65.80;;;;;;5089750;28;20051;-82
2021/09/02 03:20:37;;;;;;;17.42;12.57;;;16.80;65.80;;;;;;5088423;28;20028;-81
2021/09/02 03:23:03;;;;;;;14.65;13.18;;;16.80;65.90;;;;;;5090181;28;20032;-83
2021/09/02 03:25:29;;;;;;;19.48;13.65;;;16.80;65.90;;;;;;5088732;28;20028;-84
2021/09/02 03:27:55;;;;;;;14.25;12.82;;;16.80;66.00;;;;;;5071835;28;20085;-82
2021/09/02 03:30:21;;;;;;;15.98;12.50;;;16.80;66.00;;;;;;5088435;28;20093;-82
2021/09/02 03:32:47;;;;;;;14.60;12.57;;;16.80;66.00;;;;;;5080508;28;20044;-82
2021/09/02 03:35:13;;;;;;;13.60;12.07;;;16.80;66.00;;;;;;5089516;28;20139;-84
2021/09/02 03:37:39;;;;;;;13.95;12.63;;;16.80;66.10;;;;;;5071601;28;20538;-85
2021/09/02 03:40:06;;;;;;;14.98;13.02;;;16.80;66.10;;;;;;5088665;28;20111;-83
2021/09/02 03:42:32;;;;;;;16.20;12.68;;;16.70;66.00;;;;;;5071416;28;20028;-82
2021/09/02 03:44:58;;;;;;;14.95;12.13;;;16.70;66.00;;;;;;5089447;28;20068;-83
2021/09/02 03:47:24;;;;;;;13.25;11.93;;;16.70;66.00;;;;;;5089636;28;20487;-83
2021/09/02 03:49:50;;;;;;;12.57;11.30;;;16.70;66.10;;;;;;5089894;28;20025;-84
2021/09/02 03:52:16;;;;;;;15.15;11.88;;;16.70;66.10;;;;;;5072304;28;20047;-85
2021/09/02 03:54:42;;;;;;;14.20;11.68;;;16.70;66.20;;;;;;5090172;28;20032;-84
2021/09/02 03:57:07;;;;;;;13.18;10.88;;;16.70;66.20;;;;;;5074503;28;20073;-83
2021/09/02 03:59:33;;;;;;;16.30;12.48;;;16.60;66.00;;;;;;5089647;28;20028;-87
2021/09/02 04:01:59;;;;;;;17.05;11.50;;;16.60;66.00;;;;;;5089353;28;20100;-87
2021/09/02 04:04:25;;;;;;;15.05;11.52;;;16.60;66.00;;;;;;5063571;28;20028;-83
2021/09/02 04:06:51;;;;;;;11.60;10.50;;;16.60;66.10;;;;;;5070664;28;20356;-82
2021/09/02 04:09:18;;;;;;;15.30;11.73;;;16.60;66.10;;;;;;5070818;28;20028;-81
2021/09/02 04:11:44;;;;;;;13.98;11.23;;;16.60;66.20;;;;;;5074609;28;20080;-83
2021/09/02 04:14:09;;;;;;;13.73;11.20;;;16.60;66.20;;;;;;5093473;28;20052;-83
2021/09/02 04:16:35;;;;;;;14.48;10.85;;;16.60;66.20;;;;;;5058078;28;20044;-84
2021/09/02 04:19:01;;;;;;;14.20;11.38;;;16.60;66.30;;;;;;5091773;28;20063;-85
2021/09/02 04:21:27;;;;;;;16.10;12.20;;;16.60;66.30;;;;;;5091759;28;20051;-85
2021/09/02 04:23:53;;;;;;;14.32;10.98;;;16.60;66.30;;;;;;5075275;28;20100;-85
2021/09/02 04:26:19;;;;;;;15.93;11.52;;;16.60;66.30;;;;;;5092225;28;20024;-91
2021/09/02 04:28:45;;;;;;;15.63;11.93;;;16.60;66.40;;;;;;5092657;28;20467;-84
2021/09/02 04:31:11;;;;;;;14.63;11.60;;;16.60;66.40;;;;;;5092549;28;20110;-85
2021/09/02 04:33:37;;;;;;;12.52;10.60;;;16.60;66.50;;;;;;5085680;28;20036;-83
2021/09/02 04:36:04;;;;;;;12.38;10.68;;;16.60;66.50;;;;;;5095157;28;20028;-83
2021/09/02 04:38:30;;;;;;;13.50;10.95;;;16.60;66.50;;;;;;5093404;28;20044;-89
2021/09/02 04:40:55;;;;;;;13.63;10.68;;;16.50;66.40;;;;;;5091723;28;20024;-82
2021/09/02 04:43:22;;;;;;;14.23;11.02;;;16.50;66.40;;;;;;5092963;28;20046;-84
2021/09/02 04:45:48;;;;;;;13.35;10.02;;;16.50;66.40;;;;;;5091269;28;20115;-80
2021/09/02 04:48:19;;;;;;;15.32;11.00;;;16.50;66.40;;;;;;5070487;28;20159;-85
2021/09/02 04:50:47;;;;;;;13.70;11.15;;;16.50;66.50;;;;;;5039241;28;20364;-79
2021/09/02 04:53:14;;;;;;;12.57;10.10;;;16.50;66.50;;;;;;5056577;28;20069;-81
2021/09/02 04:55:40;;;;;;;12.60;10.52;;;16.50;66.50;;;;;;5047667;28;20063;-82
2021/09/02 04:58:08;;;;;;;15.93;11.95;;;16.50;66.50;;;;;;5046831;28;20047;-82
2021/09/02 05:00:35;;;;;;;14.07;12.25;;;16.50;66.60;;;;;;5089219;28;20065;-85
2021/09/02 05:03:02;;;;;;;12.93;11.00;;;16.50;66.60;;;;;;5061644;28;20101;-81
2021/09/02 05:05:28;;;;;;;13.00;11.60;;;16.50;66.60;;;;;;5047371;28;20111;-80
2021/09/02 05:07:54;;;;;;;14.85;10.75;;;16.50;66.60;;;;;;5072908;28;20087;-82
2021/09/02 05:10:21;;;;;;;16.00;11.75;;;16.50;66.70;;;;;;5048000;28;20037;-79
2021/09/02 05:12:47;;;;;;;14.88;11.60;;;16.50;66.70;;;;;;5051992;28;20025;-84
2021/09/02 05:15:13;;;;;;;13.25;10.95;;;16.50;66.70;;;;;;5056123;28;20040;-82
2021/09/02 05:17:39;;;;;;;13.95;11.20;;;16.40;66.60;;;;;;5063501;28;20036;-82
2021/09/02 05:20:06;;;;;;;12.98;11.65;;;16.40;66.60;;;;;;5065874;28;20028;-82
2021/09/02 05:22:32;;;;;;;16.27;11.95;;;16.40;66.60;;;;;;5064745;28;20028;-83
2021/09/02 05:24:58;;;;;;;11.18;10.05;;;16.40;66.60;;;;;;5067176;28;20307;-85
2021/09/02 05:27:24;;;;;;;14.35;11.82;;;16.40;66.70;;;;;;5048547;28;20044;-83
2021/09/02 05:29:50;;;;;;;13.70;11.43;;;16.40;66.70;;;;;;5066604;28;20081;-81
2021/09/02 05:32:16;;;;;;;17.88;12.90;;;16.40;66.70;;;;;;5068245;28;20086;-82
2021/09/02 05:34:42;;;;;;;15.45;11.95;;;16.40;66.70;;;;;;5085526;28;20089;-82
2021/09/02 05:37:08;;;;;;;13.73;12.02;;;16.40;66.80;;;;;;5086250;28;20414;-83
2021/09/02 05:39:34;;;;;;;18.33;12.93;;;16.40;66.80;;;;;;5063795;28;20075;-81
2021/09/02 05:42:00;;;;;;;14.43;11.93;;;16.40;66.80;;;;;;5031024;28;20459;-83
2021/09/02 05:44:26;;;;;;;14.00;12.23;;;16.40;66.80;;;;;;5061603;28;20098;-80
2021/09/02 05:46:52;;;;;;;12.73;11.43;;;16.40;66.80;;;;;;5067637;28;20032;-79
2021/09/02 05:49:18;;;;;;;18.98;11.50;;;16.40;66.80;;;;;;5067692;28;20437;-81
2021/09/02 05:51:44;;;;;;;14.48;10.98;;;16.40;66.90;;;;;;5064498;28;20094;-81
2021/09/02 05:54:10;;;;;;;17.48;11.40;;;16.40;66.90;;;;;;5083648;28;20085;-80
2021/09/02 05:56:35;;;;;;;14.90;10.38;;;16.40;66.90;;;;;;5086346;28;20127;-79
2021/09/02 05:59:02;;;;;;;14.63;10.70;;;16.40;67.00;;;;;;5070557;28;20502;-80
2021/09/02 06:01:27;;;;;;;16.65;9.98;;;16.40;67.00;;;;;;5065614;28;20029;-80
2021/09/02 06:03:53;;;;;;;16.83;10.48;;;16.40;67.00;;;;;;5064282;28;20087;-81
2021/09/02 06:06:19;;;;;;;15.48;10.45;;;16.40;67.10;;;;;;5064459;28;20051;-80
2021/09/02 06:08:45;;;;;;;13.20;8.55;;;16.40;67.10;;;;;;5047568;28;20090;-81
2021/09/02 06:11:11;;;;;;;13.52;9.30;;;16.40;67.20;;;;;;5065180;28;20111;-86
2021/09/02 06:13:37;;;;;;;11.38;8.60;;;16.40;67.10;;;;;;5065953;28;20033;-85
2021/09/02 06:16:03;;;;;;;9.73;8.23;;;16.40;67.10;;;;;;5064928;28;20044;-83
2021/09/02 06:18:30;;;;;;;17.00;8.48;;;16.40;67.10;;;;;;5077724;28;20063;-83
2021/09/02 06:20:56;;;;;;;13.75;7.80;;;16.40;67.10;;;;;;5084606;28;20051;-83
2021/09/02 06:23:22;;;;;;;9.88;7.72;;;16.40;67.10;;;;;;5052670;28;20178;-83
2021/09/02 06:25:48;;;;;;;13.57;7.47;;;16.40;67.10;;;;;;5048649;28;20123;-84
2021/09/02 06:28:14;;;;;;;10.27;7.00;;;16.50;67.30;;;;;;5046886;28;20111;-84
2021/09/02 06:30:41;;;;;;;11.27;6.50;;;16.50;67.30;;;;;;5050500;28;20056;-84
2021/09/02 06:33:07;;;;;;;15.80;7.20;;;16.50;67.40;;;;;;5063963;28;20085;-84
2021/09/02 06:35:33;;;;;;;10.45;7.30;;;16.50;67.50;;;;;;5044771;28;20029;-82
2021/09/02 06:37:59;;;;;;;12.98;6.68;;;16.50;67.60;;;;;;5060014;28;20040;-83
2021/09/02 06:40:25;;;;;;;11.48;7.00;;;16.50;67.70;;;;;;5064650;28;20181;-82
2021/09/02 06:42:51;;;;;;;10.02;6.45;;;16.60;68.00;;;;;;5062709;28;20039;-82
2021/09/02 06:45:17;;;;;;;8.93;6.60;;;16.60;68.00;;;;;;5064531;28;20033;-85
2021/09/02 06:47:44;;;;;;;10.05;6.88;;;16.70;68.80;;;;;;5067388;28;20115;-82
2021/09/02 06:50:12;;;;;;;9.38;6.47;;;16.70;68.20;;;;;;5045621;28;20605;-83
2021/09/02 06:52:39;;;;;;;14.02;7.10;;;16.70;68.30;;;;;;5064892;28;20314;-82
2021/09/02 06:55:07;;;;;;;9.25;6.60;;;16.80;68.40;;;;;;5064992;28;20063;-84
2021/09/02 06:57:33;;;;;;;8.68;6.28;;;16.80;68.40;;;;;;5065609;28;20513;-83
2021/09/02 06:59:59;;;;;;;10.30;6.35;;;16.80;68.40;;;;;;5063534;28;20178;-83
2021/09/02 07:02:25;;;;;;;6.60;5.07;;;16.90;68.60;;;;;;5063725;28;20107;-83
2021/09/02 07:04:52;;;;;;;9.98;5.60;;;16.90;68.60;;;;;;5046764;28;20036;-82
2021/09/02 07:07:18;;;;;;;12.00;5.43;;;16.90;68.60;;;;;;5063010;28;20035;-82
2021/09/02 07:09:44;;;;;;;8.50;5.90;;;16.90;68.50;;;;;;5083178;28;20057;-82
2021/09/02 07:12:10;;;;;;;7.05;4.95;;;17.00;68.60;;;;;;5084065;28;20024;-83
2021/09/02 07:14:36;;;;;;;12.90;5.78;;;17.00;68.50;;;;;;5084091;28;20032;-83
2021/09/02 07:17:05;;;;;;;9.73;5.95;;;17.10;68.70;;;;;;5084545;28;20340;-85
2021/09/02 07:19:31;;;;;;;6.78;5.07;;;17.10;68.60;;;;;;5083796;28;20423;-87
2021/09/02 07:21:57;;;;;;;7.05;5.10;;;17.10;68.50;;;;;;5067563;28;20039;-85
2021/09/02 07:24:23;;;;;;;7.13;4.85;;;17.20;68.60;;;;;;5068330;28;20035;-85
2021/09/02 07:26:49;;;;;;;7.25;4.97;;;17.20;68.60;;;;;;5084464;28;20085;-85
2021/09/02 07:29:15;;;;;;;10.93;5.25;;;17.30;68.60;;;;;;5068485;28;20518;-85
2021/09/02 07:31:41;;;;;;;8.55;5.35;;;17.30;68.50;;;;;;5065014;28;20036;-85
2021/09/02 07:34:07;;;;;;;9.20;5.22;;;17.40;68.60;;;;;;5064270;28;20020;-83
2021/09/02 07:36:34;;;;;;;5.90;4.57;;;17.40;68.50;;;;;;5063555;28;20028;-84
2021/09/02 07:39:00;;;;;;;8.68;5.13;;;17.50;68.50;;;;;;5054118;28;20099;-85
2021/09/02 07:41:26;;;;;;;9.88;5.07;;;17.50;68.40;;;;;;5060222;28;20063;-81
2021/09/02 07:43:52;;;;;;;6.43;4.80;;;17.50;68.30;;;;;;5040413;28;20090;-83
2021/09/02 07:46:19;;;;;;;9.13;4.93;;;17.60;68.40;;;;;;5065846;28;20398;-82
2021/09/02 07:48:46;;;;;;;8.95;5.25;;;17.60;68.20;;;;;;5055352;28;20398;-88
2021/09/02 07:51:16;;;;;;;7.45;4.97;;;17.70;68.30;;;;;;5067198;28;20031;-81
2021/09/02 07:53:42;;;;;;;12.52;5.55;;;17.80;68.40;;;;;;5067547;28;20082;-85
2021/09/02 07:56:08;;;;;;;7.30;4.82;;;17.80;68.20;;;;;;5050417;28;20529;-80
2021/09/02 07:58:35;;;;;;;5.78;5.10;;;17.80;68.10;;;;;;5067145;28;20063;-81
2021/09/02 08:01:01;;;;;;;9.35;5.50;;;17.90;68.10;;;;;;5067206;28;20344;-82
2021/09/02 08:03:27;;;;;;;8.05;4.80;;;17.90;67.90;;;;;;5061677;28;20067;-80
2021/09/02 08:05:53;;;;;;;7.07;4.55;;;18.00;68.00;;;;;;5087687;28;20427;-82
2021/09/02 08:08:20;;;;;;;5.78;4.57;;;18.00;67.80;;;;;;5087538;28;20039;-80
2021/09/02 08:10:48;;;;;;;10.93;5.55;;;18.10;67.80;;;;;;5087688;28;20051;-82
2021/09/02 08:13:14;;;;;;;9.77;4.32;;;18.20;67.90;;;;;;5078715;28;20029;-83
2021/09/02 08:15:40;;;;;;;8.00;4.40;;;18.20;67.70;;;;;;5066534;28;20040;-82
2021/09/02 08:18:07;;;;;;;7.18;5.25;;;18.30;67.70;;;;;;5077925;28;20044;-79
2021/09/02 08:20:34;;;;;;;8.40;4.38;;;18.30;67.50;;;;;;5086558;28;20032;-81
2021/09/02 08:23:00;;;;;;;8.38;4.93;;;18.40;67.50;;;;;;5079541;28;20036;-82
2021/09/02 08:25:27;;;;;;;9.85;4.75;;;18.40;67.30;;;;;;5066927;28;20024;-80
2021/09/02 08:27:53;;;;;;;5.03;4.10;;;18.50;67.30;;;;;;5071464;28;20024;-81
2021/09/02 08:30:22;;;;;;;11.27;5.38;;;18.50;67.00;;;;;;5069750;28;20024;-87
2021/09/02 08:32:49;;;;;;;9.95;4.85;;;18.60;66.90;;;;;;5064195;28;20073;-82
2021/09/02 08:35:20;;;;;;;10.18;5.00;;;18.70;66.90;;;;;;5049881;28;20029;-83
2021/09/02 08:37:47;;;;;;;7.22;3.97;;;18.70;66.70;;;;;;5066143;28;20123;-83
2021/09/02 08:40:18;;;;;;;8.00;4.57;;;18.80;66.70;;;;;;5065842;28;20123;-82
2021/09/02 08:42:45;;;;;;;7.22;3.63;;;18.90;66.70;;;;;;5048994;28;20032;-81
2021/09/02 08:45:11;;;;;;;7.63;4.65;;;18.90;66.60;;;;;;5049882;28;20032;-82
2021/09/02 08:47:37;;;;;;;6.18;3.90;;;19.00;66.50;;;;;;5074317;28;20492;-82
2021/09/02 08:50:05;;;;;;;8.70;4.40;;;19.10;66.60;;;;;;5088172;28;20020;-85
2021/09/02 08:52:31;;;;;;;6.80;4.25;;;19.10;66.40;;;;;;5085602;28;20052;-83
2021/09/02 08:54:58;;;;;;;6.32;4.43;;;19.20;66.50;;;;;;5068743;28;20034;-85
2021/09/02 08:57:25;;;;;;;8.02;4.53;;;19.30;66.50;;;;;;5067057;28;20025;-82
2021/09/02 08:59:50;;;;;;;9.43;4.53;;;19.30;66.30;;;;;;5087045;28;20038;-82
2021/09/02 09:02:31;;;;;;;9.35;3.92;;;19.50;66.50;;;;;;5086664;28;20051;-82
2021/09/02 09:05:09;;;;;;;8.32;4.20;;;19.60;66.40;;;;;;5085979;28;20047;-83
2021/09/02 09:07:38;;;;;;;8.35;4.00;;;19.70;66.40;;;;;;5086418;28;20028;-82
2021/09/02 09:10:19;;;;;;;7.35;3.88;;;19.80;66.40;;;;;;5085882;28;20429;-82
2021/09/02 09:12:51;;;;;;;7.15;3.97;;;19.80;66.10;;;;;;5081133;28;20649;-82
2021/09/02 09:15:23;;;;;;;6.93;4.07;;;19.90;66.10;;;;;;5048907;28;20454;-82
2021/09/02 09:17:53;;;;;;;8.23;4.38;;;20.00;66.00;;;;;;5072558;28;20040;-82
2021/09/02 09:20:21;;;;;;;4.30;3.80;;;20.10;66.00;;;;;;5067207;28;20032;-82
2021/09/02 09:22:55;;;;;;;8.82;3.88;;;20.10;65.80;;;;;;5049079;28;20119;-83
2021/09/02 09:25:22;;;;;;;9.25;4.70;;;20.20;65.80;;;;;;5065457;28;20075;-84
2021/09/02 09:27:50;;;;;;;8.15;4.57;;;20.30;66.00;;;;;;5053351;28;20028;-82
2021/09/02 09:30:25;;;;;;;6.82;3.88;;;20.30;65.60;;;;;;5086724;28;20039;-81
2021/09/02 09:32:55;;;;;;;7.05;3.88;;;20.40;65.50;;;;;;5082189;28;20126;-83
2021/09/02 09:35:30;;;;;;;7.53;4.32;;;20.60;65.70;;;;;;5065635;28;20029;-84
2021/09/02 09:38:21;;;;;;;9.63;5.15;;;20.70;65.60;;;;;;5065107;28;20047;-83
2021/09/02 09:40:51;;;;;;;9.85;4.60;;;20.80;65.50;;;;;;5064956;28;20082;-83
2021/09/02 09:43:23;;;;;;;7.70;5.15;;;20.90;65.40;;;;;;5065757;28;20035;-84
2021/09/02 09:45:57;;;;;;;9.98;4.85;;;21.00;65.30;;;;;;5049730;28;20459;-82
2021/09/02 09:48:23;;;;;;;9.95;5.68;;;21.00;65.00;;;;;;5062502;28;20058;-84
2021/09/02 09:51:17;;;;;;;8.45;4.60;;;21.10;65.00;;;;;;5085726;28;20024;-84
2021/09/02 09:53:49;;;;;;;6.40;4.40;;;21.20;64.90;;;;;;5073173;28;20102;-84
2021/09/02 09:56:17;;;;;;;8.38;4.80;;;21.30;64.90;;;;;;5065402;28;20036;-84
2021/09/02 09:58:48;;;;;;;6.28;4.07;;;21.40;64.80;;;;;;5076789;28;20235;-84
2021/09/02 10:01:14;;;;;;;7.93;4.22;;;21.40;64.50;;;;;;5087406;28;20031;-85
2021/09/02 10:03:41;;;;;;;11.07;4.93;;;21.60;64.70;;;;;;5084985;28;20032;-84
2021/09/02 10:06:09;;;;;;;9.63;4.32;;;21.70;64.60;;;;;;5085537;28;20035;-83
2021/09/02 10:08:38;;;;;;;6.30;4.32;;;21.70;64.30;;;;;;5086160;28;20165;-83
2021/09/02 10:11:06;;;;;;;8.70;4.82;;;21.80;64.20;;;;;;5084883;28;20032;-81
2021/09/02 10:13:33;;;;;;;5.88;4.40;;;21.90;64.20;;;;;;5073651;28;20059;-82
2021/09/02 10:16:00;;;;;;;8.70;4.72;;;22.10;64.30;;;;;;5066403;28;20052;-83
2021/09/02 10:18:29;;;;;;;8.13;5.10;;;22.10;64.10;;;;;;5080911;28;20048;-84
2021/09/02 10:21:04;;;;;;;12.48;4.35;;;22.20;64.00;;;;;;5085932;28;20032;-85
2021/09/02 10:23:30;;;;;;;8.02;4.70;;;22.30;63.90;;;;;;5075761;28;20112;-85
2021/09/02 10:25:57;;;;;;;8.05;4.65;;;22.40;63.80;;;;;;5065879;28;20105;-85
2021/09/02 10:28:32;;;;;;;6.00;4.43;;;22.50;63.70;;;;;;5058148;28;20052;-89
2021/09/02 10:31:01;;;;;;;8.30;4.88;;;22.60;63.40;;;;;;5069236;28;20031;-86
2021/09/02 10:33:32;;;;;;;5.57;4.93;;;22.80;63.60;;;;;;5085851;28;20031;-84
2021/09/02 10:36:02;;;;;;;6.43;4.57;;;22.80;63.20;;;;;;5068794;28;20441;-85
2021/09/02 10:38:52;;;;;;;5.72;4.72;;;22.90;63.20;;;;;;5086654;28;20043;-86
2021/09/02 10:41:44;;;;;;;10.35;5.13;;;23.00;63.10;;;;;;5086572;28;20043;-86
2021/09/02 10:44:12;;;;;;;12.18;5.43;;;23.10;63.00;;;;;;5062132;28;20032;-86
2021/09/02 10:46:43;;;;;;;7.85;5.05;;;23.20;62.90;;;;;;5045400;28;20499;-86
2021/09/02 10:49:23;;;;;;;9.88;5.10;;;23.20;62.70;;;;;;5070854;28;20119;-86
2021/09/02 10:51:51;;;;;;;7.45;4.95;;;23.40;62.80;;;;;;5048812;28;20073;-84
2021/09/02 10:54:23;;;;;;;8.52;4.97;;;23.50;62.80;;;;;;5071711;28;20316;-81
2021/09/02 10:57:16;;;;;;;9.57;5.70;;;23.50;62.60;;;;;;5066219;28;20024;-81
2021/09/02 10:59:46;;;;;;;7.93;4.87;;;23.60;62.20;;;;;;5053550;28;20052;-84
2021/09/02 11:02:18;;;;;;;9.82;4.93;;;23.70;62.20;;;;;;5069235;28;20515;-87
2021/09/02 11:04:45;;;;;;;7.57;4.93;;;23.60;61.50;;;;;;5067098;28;20040;-83
2021/09/02 11:07:12;;;;;;;6.25;4.50;;;23.60;61.50;;;;;;5061810;28;20055;-80
2021/09/02 11:09:40;;;;;;;10.35;5.57;;;23.70;61.50;;;;;;5061552;28;20065;-80
2021/09/02 11:12:11;;;;;;;7.78;4.82;;;23.70;61.00;;;;;;5050433;28;20028;-81
2021/09/02 11:14:45;;;;;;;5.93;4.32;;;23.60;60.20;;;;;;5070453;28;20028;-81
2021/09/02 11:17:12;;;;;;;8.98;5.45;;;23.50;59.40;;;;;;5074102;28;20070;-87
2021/09/02 11:19:40;;;;;;;9.50;4.70;;;23.50;59.40;;;;;;5072748;28;20043;-85
2021/09/02 11:22:07;;;;;;;7.43;4.80;;;23.30;58.90;;;;;;5086419;28;20039;-80
2021/09/02 11:24:42;;;;;;;6.60;3.90;;;23.30;58.90;;;;;;5073376;28;20135;-86
2021/09/02 11:27:11;;;;;;;6.28;3.78;;;23.20;58.40;;;;;;5063571;28;20033;-87
2021/09/02 11:29:37;;;;;;;4.75;3.92;;;23.10;58.40;;;;;;5071416;28;20055;-82
2021/09/02 11:32:05;;;;;;;6.35;3.95;;;23.10;58.30;;;;;;5066316;28;20037;-83
2021/09/02 11:34:31;;;;;;;6.00;4.07;;;23.00;58.10;;;;;;5063938;28;20036;-82
2021/09/02 11:36:58;;;;;;;6.40;4.30;;;23.00;58.10;;;;;;5071494;28;20032;-84
2021/09/02 11:39:35;;;;;;;7.10;4.07;;;22.90;57.70;;;;;;5087424;28;20463;-81
2021/09/02 11:42:04;;;;;;;7.60;4.38;;;22.80;57.50;;;;;;5083689;28;20068;-83
2021/09/02 11:44:32;;;;;;;10.80;4.20;;;22.80;57.60;;;;;;5065078;28;20036;-84
2021/09/02 11:47:05;;;;;;;6.15;4.07;;;22.70;57.50;;;;;;5066438;28;20083;-82
2021/09/02 11:49:31;;;;;;;6.15;4.47;;;22.60;57.30;;;;;;5066509;28;20036;-85
2021/09/02 11:51:58;;;;;;;9.30;4.45;;;22.60;57.50;;;;;;5065692;28;20032;-81
2021/09/02 11:54:26;;;;;;;8.15;4.80;;;22.60;57.40;;;;;;5064470;28;20109;-85
2021/09/02 11:56:52;;;;;;;6.78;4.88;;;22.50;57.10;;;;;;5053612;28;20044;-80
2021/09/02 11:59:19;;;;;;;7.30;4.60;;;22.50;57.00;;;;;;5062875;28;20550;-82
2021/09/02 12:01:48;;;;;;;6.72;4.30;;;22.50;57.00;;;;;;5063396;28;20067;-82
2021/09/02 12:04:26;;;;;;;8.00;5.13;;;22.40;56.70;;;;;;5064190;28;20380;-81
2021/09/02 12:07:03;;;;;;;5.88;4.35;;;22.40;56.80;;;;;;5064826;28;20032;-81
2021/09/02 12:09:35;;;;;;;6.78;5.20;;;22.40;56.90;;;;;;5063891;28;20063;-83
2021/09/02 12:12:02;;;;;;;5.20;4.18;;;22.40;56.80;;;;;;5063975;28;20033;-80
2021/09/02 12:14:30;;;;;;;10.30;4.70;;;22.40;56.80;;;;;;5064222;28;20102;-79
2021/09/02 12:17:04;;;;;;;5.32;3.78;;;22.40;56.80;;;;;;5065824;28;20522;-80
2021/09/02 12:19:53;;;;;;;6.93;3.90;;;22.40;56.70;;;;;;5065692;28;20131;-81
2021/09/02 12:22:20;;;;;;;6.72;3.92;;;22.30;56.40;;;;;;5064588;28;20079;-81
2021/09/02 12:24:47;;;;;;;8.65;4.97;;;22.30;56.60;;;;;;5043225;28;20039;-80
2021/09/02 12:27:13;;;;;;;7.43;4.18;;;22.30;56.60;;;;;;5043452;28;20469;-81
2021/09/02 12:29:48;;;;;;;11.05;5.10;;;22.30;56.60;;;;;;5078936;28;20032;-81
2021/09/02 12:32:16;;;;;;;5.78;4.15;;;22.30;56.40;;;;;;5068255;28;20033;-81
2021/09/02 12:34:42;;;;;;;6.97;4.30;;;22.30;56.40;;;;;;5074986;28;20029;-82
2021/09/02 12:37:11;;;;;;;8.30;4.32;;;22.30;56.40;;;;;;5068482;28;20051;-80
2021/09/02 12:40:01;;;;;;;6.10;4.38;;;22.30;56.40;;;;;;5067716;28;20130;-81